Aumsville, Oregon
Current Conditions -  °F | °C
As of 12:56 AM on Wednesday 28 Jan 2015 (Local Time) from KSLE Reporting Station
Overcast Overcast  
Wind Chill: 51°   Ceiling: 4100
Heat Index: 51°   Visibility: 10mi
Dew Point: 48°   Wind: 5mph
Humidity: 89%   Direction: 180°S
Pressure: 30.27"   Gusts: NA
Location:  44.84°N, 122.87°W
Report Text: KSLE 280856Z AUTO 18004KT 10SM OVC041 11/09 A3027 RMK AO2 SLP251 T01060089 51008
Loading
Personal Weather Stations






























Interactive Weather Map New forecast layout! Learn more

10-Day Weather Forecast

Advertisements
Track Severe Weather on mobile